Morganville, Kansas
Current Conditions -  °F | °C
As of 11:55 PM on Wednesday 17 Dec 2014 (Local Time) from KCNK Reporting Station
Light Snow Light Snow  
Wind Chill: 25°   Ceiling: 2300
Heat Index: 25°   Visibility: 1.5mi
Dew Point: 24°   Wind: 3mph
Humidity: 96%   Direction: 90°E
Pressure: 30.2"   Gusts: NA
Location:  39.47°N, 97.2°W
Report Text: KCNK 180555Z AUTO 09003KT 1 1/2SM -SN BR OVC023 M04/M04 A3020 RMK AO2 SLP246 P0002 60002 T10391044 11028 21039 410221056 53001
Loading
Personal Weather Stations






























Interactive Weather Map New forecast layout! Learn more

10-Day Weather Forecast

Advertisements
Track Severe Weather on mobile